Terminal Aerodrome Forecast
Issued by NWS

Home | Current Version | Previous Version | Text Only | Print | Product List | Glossary On
Versions: 1 2 3 4 5 6 7 8 9 10 11 12 13 14 15 16 17
000
FTUS43 KMQT 010520
TAFCMX
TAF
KCMX 010520Z 0106/0206 22009KT P6SM FEW080
     FM011200 22007KT 6SM BR SCT110
     FM011300 23007KT P6SM BKN080
     FM012300 29004KT P6SM SCT130
     FM020200 00000KT P6SM SCT200=

USA.gov is the U.S. government's official web portal to all federal, state and local government web resources and services.